Time;durP1;ratioP1;P1;durP2;ratioP2;P2;SDS_P1;SDS_P2;PMS_P1;PMS_P2;Temp;Humidity;BMP_temperature;BMP_pressure;BME280_temperature;BME280_humidity;BME280_pressure;Samples;Min_cycle;Max_cycle;Signal;HPM_P1;HPM_P2
2023/03/28 00:01:12;;;;;;;5.25;2.05;;;;;;;;;;4924346;29;20040;-78
2023/03/28 00:03:38;;;;;;;4.05;2.10;;;;;;;;;;4921917;29;20474;-78
2023/03/28 00:06:08;;;;;;;4.47;1.98;;;;;;;;;;4938808;29;20024;-78
2023/03/28 00:08:35;;;;;;;4.57;1.90;;;;;;;;;;4938293;29;20055;-78
2023/03/28 00:11:09;;;;;;;5.20;1.73;;;;;;;;;;4938497;29;20470;-78
2023/03/28 00:13:36;;;;;;;3.10;1.73;;;;;;;;;;4938513;29;20051;-78
2023/03/28 00:16:05;;;;;;;3.28;1.92;;;;;;;;;;4921862;29;20040;-78
2023/03/28 00:18:31;;;;;;;2.65;1.60;;;;;;;;;;4942567;29;20410;-78
2023/03/28 00:20:58;;;;;;;4.88;1.90;;;;;;;;;;4944483;29;20043;-78
2023/03/28 00:23:27;;;;;;;4.65;2.97;;;;;;;;;;4938157;29;20596;-78
2023/03/28 00:25:55;;;;;;;2.70;1.60;;;;;;;;;;4932293;29;20509;-78
2023/03/28 00:28:21;;;;;;;2.22;1.38;;;;;;;;;;4936470;29;20036;-79
2023/03/28 00:30:47;;;;;;;3.33;1.60;;;102.40;2227.20;;;;;;4936258;29;20024;-79
2023/03/28 00:33:12;;;;;;;3.03;1.58;;;77.60;2227.20;;;;;;4918426;29;20372;-79
2023/03/28 00:35:38;;;;;;;3.58;1.77;;;77.50;2227.20;;;;;;4919736;29;20043;-79
2023/03/28 00:38:04;;;;;;;3.72;1.75;;;77.40;2227.20;;;;;;4911300;29;20150;-78
2023/03/28 00:40:35;;;;;;;2.50;1.50;;;77.60;2227.20;;;;;;4905464;29;20478;-78
2023/03/28 00:43:03;;;;;;;4.30;1.65;;;77.40;2227.20;;;;;;4937319;29;20054;-78
2023/03/28 00:45:32;;;;;;;4.28;1.90;;;77.30;2227.20;;;;;;4937882;29;20382;-78
2023/03/28 00:48:05;;;;;;;4.97;1.50;;;77.40;2227.20;;;;;;4937207;29;20035;-78
2023/03/28 00:50:39;;;;;;;3.38;1.73;;;;;;;;;;4918965;29;20042;-78
2023/03/28 00:53:07;;;;;;;4.10;1.60;;;;;;;;;;4937820;29;20377;-78
2023/03/28 00:55:36;;;;;;;4.22;1.70;;;;;;;;;;4937284;29;20036;-78
2023/03/28 00:58:05;;;;;;;4.13;1.70;;;;;;;;;;4937042;29;20047;-78
2023/03/28 01:00:33;;;;;;;4.07;1.73;;;;;;;;;;4936174;29;20054;-78
2023/03/28 01:03:01;;;;;;;4.00;1.90;;;;;;;;;;4937618;29;20028;-78
2023/03/28 01:05:30;;;;;;;2.45;1.45;;;;;;;;;;4937558;29;20103;-78
2023/03/28 01:08:03;;;;;;;2.72;1.30;;;;;;;;;;4937340;29;20027;-78
2023/03/28 01:10:30;;;;;;;5.25;1.60;;;;;;;;;;4936873;29;20038;-78
2023/03/28 01:12:58;;;;;;;2.97;1.75;;;;;;;;;;4934342;29;20059;-78
2023/03/28 01:15:24;;;;;;;3.40;1.50;;;;;;;;;;4937097;29;20039;-78
2023/03/28 01:17:51;;;;;;;4.60;1.70;;;;;;;;;;4936788;29;20024;-79
2023/03/28 01:20:25;;;;;;;6.57;1.88;;;;;;;;;;4935675;29;20051;-78
2023/03/28 01:22:52;;;;;;;;;;;;;;;;;;4937138;29;20034;-78
2023/03/28 01:25:36;;;;;;;2.60;1.58;;;;;;;;;;4936707;29;19910;-78
2023/03/28 01:28:22;;;;;;;3.22;1.67;;;;;;;;;;4920203;29;20054;-78
2023/03/28 01:30:48;;;;;;;4.43;2.30;;;;;;;;;;4936306;29;20146;-78
2023/03/28 01:33:15;;;;;;;3.28;1.75;;;;;;;;;;4919263;29;20040;-78
2023/03/28 01:35:50;;;;;;;6.10;1.88;;;;;;;;;;4920151;29;20020;-78
2023/03/28 01:38:17;;;;;;;4.93;2.10;;;;;;;;;;4938035;29;20027;-78
2023/03/28 01:40:56;;;;;;;3.55;1.90;;;;;;;;;;4938296;29;20035;-78
2023/03/28 01:43:26;;;;;;;3.60;2.00;;;;;;;;;;4944860;29;20032;-78
2023/03/28 01:46:05;;;;;;;4.07;2.10;;;;;;;;;;4947454;29;20031;-80
2023/03/28 01:48:43;;;;;;;5.32;2.40;;;;;;;;;;4932525;29;20035;-78
2023/03/28 01:51:21;;;;;;;5.80;2.53;;;;;;;;;;4932287;29;20130;-78
2023/03/28 01:54:08;;;;;;;6.18;2.95;;;;;;;;;;4931674;29;20036;-78
2023/03/28 01:59:46;;;;;;;5.47;3.20;;;;;;;;;;4929033;29;20071;-78
2023/03/28 02:02:22;;;;;;;5.85;2.72;;;;;;;;;;4913686;29;20083;-78
2023/03/28 02:04:51;;;;;;;4.63;2.53;;;;;;;;;;4929271;29;20036;-77
2023/03/28 02:07:20;;;;;;;7.60;2.80;;;;;;;;;;4929600;29;20043;-79
2023/03/28 02:09:48;;;;;;;5.28;2.25;;;;;;;;;;4937963;29;20023;-78
2023/03/28 02:12:37;;;;;;;6.43;2.88;;;;;;;;;;4951088;29;20086;-77
2023/03/28 02:15:05;;;;;;;5.05;2.70;;;;;;;;;;4951645;29;20082;-78
2023/03/28 02:17:33;;;;;;;5.57;2.80;;;;;;;;;;4951319;29;20020;-77
2023/03/28 02:20:12;;;;;;;8.00;3.13;;;;;;;;;;4951300;29;20059;-79
2023/03/28 02:22:44;;;;;;;8.88;3.35;;;;;;;;;;4951299;29;20024;-78
2023/03/28 02:25:16;;;;;;;5.50;3.22;;;;;;;;;;4950018;29;20042;-78
2023/03/28 02:27:45;;;;;;;5.72;3.30;;;;;;;;;;4950120;29;20043;-79
2023/03/28 02:30:13;;;;;;;5.03;3.15;;;;;;;;;;4932460;29;20028;-78
2023/03/28 02:32:42;;;;;;;5.13;2.70;;;;;;;;;;4933254;29;20079;-78
2023/03/28 02:35:11;;;;;;;6.25;3.30;;;;;;;;;;4932172;29;20063;-77
2023/03/28 02:37:41;;;;;;;7.68;3.70;;;;;;;;;;4947032;29;20029;-78
2023/03/28 02:40:45;;;;;;;6.93;3.70;;;;;;;;;;4950193;29;20054;-77
2023/03/28 02:43:32;;;;;;;6.60;3.40;;;;;;;;;;4851593;29;20033;-78
2023/03/28 02:46:11;;;;;;;4.80;3.15;;;;;;;;;;4854329;29;20029;-78
2023/03/28 02:48:43;;;;;;;5.60;3.30;;;;;;;;;;4870019;29;20034;-78
2023/03/28 02:51:12;;;;;;;7.30;3.40;;;;;;;;;;4856432;29;20093;-78
2023/03/28 02:53:50;;;;;;;8.15;3.13;;;;;;;;;;4869132;29;20037;-78
2023/03/28 02:59:36;;;;;;;6.50;3.30;;;;;;;;;;4858240;29;20641;-78
2023/03/28 03:02:04;;;;;;;6.95;3.35;;;;;;;;;;4874328;29;20659;-77
2023/03/28 03:04:30;;;;;;;7.75;4.15;;;;;;;;;;4858300;29;20104;-78
2023/03/28 03:06:59;;;;;;;4.43;3.60;;;76.90;2227.20;;;;;;4867504;29;20022;-77
2023/03/28 03:09:25;;;;;;;6.07;3.50;;;52.00;2227.20;;;;;;4852808;29;20050;-77
2023/03/28 03:11:51;;;;;;;6.43;3.55;;;51.90;2227.20;;;;;;4854140;29;20049;-77
2023/03/28 03:14:17;;;;;;;6.90;3.60;;;51.90;2227.20;;;;;;4846498;29;20057;-77
2023/03/28 03:16:43;;;;;;;6.75;3.50;;;51.90;2227.20;;;;;;4889879;29;20040;-78
2023/03/28 03:19:09;;;;;;;6.93;3.50;;;51.90;2227.20;;;;;;4932920;29;20047;-78
2023/03/28 03:21:36;;;;;;;6.00;3.53;;;;;;;;;;4926167;29;20036;-77
2023/03/28 03:24:03;;;;;;;7.00;3.47;;;;;;;;;;4927189;29;20044;-77
2023/03/28 03:26:29;;;;;;;5.78;3.45;;;;;;;;;;4925459;29;20103;-78
2023/03/28 03:28:56;;;;;;;5.95;3.40;;;;;;;;;;4931580;29;20474;-78
2023/03/28 03:31:22;;;;;;;5.95;3.63;;;;;;;;;;4942855;29;20036;-77
2023/03/28 03:33:49;;;;;;;8.60;3.70;;;;;;;;;;4945593;29;20051;-77
2023/03/28 03:36:16;;;;;;;6.35;3.75;;;;;;;;;;4944654;29;20039;-77
2023/03/28 03:38:43;;;;;;;8.50;4.65;;;;;;;;;;4945467;29;20039;-77
2023/03/28 03:41:09;;;;;;;7.40;4.32;;;;;;;;;;4945891;29;20118;-78
2023/03/28 03:43:36;;;;;;;8.00;3.95;;;;;;;;;;4957662;29;20046;-78
2023/03/28 03:46:02;;;;;;;6.68;4.28;;;;;;;;;;4927561;29;20028;-78
2023/03/28 03:48:29;;;;;;;7.70;4.45;;;;;;;;;;4927664;29;20024;-78
2023/03/28 03:50:55;;;;;;;6.75;3.72;;;;;;;;;;4939309;29;20040;-77
2023/03/28 03:53:21;;;;;;;7.55;4.18;;;;;;;;;;4946725;29;20497;-77
2023/03/28 03:55:47;;;;;;;6.95;4.05;;;;;;;;;;4941464;29;20040;-77
2023/03/28 03:58:13;;;;;;;8.90;4.35;;;;;;;;;;4939357;29;20040;-78
2023/03/28 04:00:39;;;;;;;6.28;3.70;;;;;;;;;;4921854;29;20090;-78
2023/03/28 04:03:06;;;;;;;8.80;4.20;;;;;;;;;;4938932;29;20069;-78
2023/03/28 04:05:33;;;;;;;8.45;4.30;;;51.80;2227.20;;;;;;4910846;29;20389;-78
2023/03/28 04:08:00;;;;;;;16.08;7.97;;;51.50;2227.20;;;;;;4918724;29;20494;-77
2023/03/28 04:10:26;;;;;;;92.18;33.05;;;51.40;2227.20;;;;;;4935610;29;20028;-77
2023/03/28 04:12:52;;;;;;;28.67;13.82;;;51.40;2227.20;;;;;;4937098;29;21001;-77
2023/03/28 04:15:18;;;;;;;29.55;17.15;;;51.40;2227.20;;;;;;4920356;29;20071;-78
2023/03/28 04:17:44;;;;;;;88.78;25.50;;;51.40;2227.20;;;;;;4920616;29;20032;-77
2023/03/28 04:20:10;;;;;;;34.58;10.95;;;51.30;2227.20;;;;;;4937054;29;20035;-76
2023/03/28 04:22:36;;;;;;;43.05;23.83;;;51.40;2227.20;;;;;;4936115;29;20170;-78
2023/03/28 04:25:03;;;;;;;81.45;31.17;;;51.40;2227.20;;;;;;4928280;29;20122;-78
2023/03/28 04:27:30;;;;;;;44.10;15.50;;;51.30;2227.20;;;;;;4937286;29;20027;-77
2023/03/28 04:29:56;;;;;;;50.47;18.02;;;51.30;2227.20;;;;;;4936896;29;20027;-78
2023/03/28 04:32:23;;;;;;;41.40;16.13;;;51.40;2227.20;;;;;;4947338;29;20024;-78
2023/03/28 04:34:52;;;;;;;38.58;13.57;;;51.30;2227.20;;;;;;4943183;29;20096;-78
2023/03/28 04:37:18;;;;;;;23.27;8.20;;;51.30;2227.20;;;;;;4938227;29;20020;-79
2023/03/28 04:39:46;;;;;;;20.90;8.23;;;51.30;2227.20;;;;;;4946913;29;20067;-78
2023/03/28 04:42:33;;;;;;;35.60;12.50;;;51.30;2227.20;;;;;;4951140;29;20027;-80
2023/03/28 04:44:59;;;;;;;24.15;9.13;;;51.40;2227.20;;;;;;4923166;29;20103;-79
2023/03/28 04:47:24;;;;;;;30.05;11.10;;;26.10;2201.60;;;;;;4914172;29;20031;-81
2023/03/28 04:49:51;;;;;;;20.80;7.75;;;51.40;2227.20;;;;;;4930472;29;20347;-79
2023/03/28 04:52:18;;;;;;;25.20;8.05;;;51.40;2227.20;;;;;;4921995;29;20047;-78
2023/03/28 04:54:44;;;;;;;21.15;8.68;;;51.50;2227.20;;;;;;4938948;29;20031;-78
2023/03/28 04:57:10;;;;;;;65.68;18.13;;;51.50;2227.20;;;;;;4939218;29;20055;-78
2023/03/28 04:59:36;;;;;;;41.88;13.02;;;26.50;2201.60;;;;;;4916457;29;20502;-78
2023/03/28 05:02:02;;;;;;;59.35;20.00;;;51.50;2227.20;;;;;;4919958;29;20028;-79
2023/03/28 05:04:27;;;;;;;72.43;21.42;;;51.50;2227.20;;;;;;4929612;29;20526;-78
2023/03/28 05:06:53;;;;;;;55.65;18.45;;;51.60;2227.20;;;;;;4936917;29;20040;-79
2023/03/28 05:09:21;;;;;;;38.35;14.50;;;51.60;2227.20;;;;;;4937016;29;20028;-79
2023/03/28 05:11:47;;;;;;;38.22;13.38;;;51.70;2227.20;;;;;;4936755;29;20035;-78
2023/03/28 05:14:16;;;;;;;47.30;20.42;;;51.70;2227.20;;;;;;4937151;29;20056;-78
2023/03/28 05:16:41;;;;;;;33.20;12.68;;;51.80;2227.20;;;;;;4937132;29;20462;-79
2023/03/28 05:19:09;;;;;;;20.50;12.32;;;51.80;2227.20;;;;;;4920086;29;20083;-79
2023/03/28 05:21:35;;;;;;;22.85;9.25;;;51.80;2227.20;;;;;;4936992;29;20470;-80
2023/03/28 05:24:01;;;;;;;40.08;16.90;;;51.90;2227.20;;;;;;4937257;29;20386;-78
2023/03/28 05:26:27;;;;;;;29.85;14.93;;;51.90;2227.20;;;;;;4929898;29;20027;-79
2023/03/28 05:28:55;;;;;;;18.65;7.40;;;;;;;;;;4936705;29;20032;-79
2023/03/28 05:31:24;;;;;;;22.20;9.05;;;;;;;;;;4936509;29;20363;-79
2023/03/28 05:33:51;;;;;;;21.65;8.13;;;77.00;2227.20;;;;;;4920151;29;20083;-79
2023/03/28 05:36:17;;;;;;;33.35;12.05;;;76.90;2227.20;;;;;;4937556;29;20051;-79
2023/03/28 05:38:43;;;;;;;19.30;7.00;;;76.80;2227.20;;;;;;4919941;29;20060;-78
2023/03/28 05:41:09;;;;;;;12.98;5.72;;;76.90;2227.20;;;;;;4939234;29;20521;-78
2023/03/28 05:43:35;;;;;;;17.45;7.38;;;77.00;2227.20;;;;;;4922229;29;20024;-78
2023/03/28 05:46:00;;;;;;;17.00;7.28;;;77.00;2227.20;;;;;;4924211;29;20036;-78
2023/03/28 05:48:27;;;;;;;19.33;8.35;;;77.10;2227.20;;;;;;4940275;29;20028;-79
2023/03/28 05:50:53;;;;;;;15.00;5.85;;;77.20;2227.20;;;;;;4923688;29;20027;-79
2023/03/28 05:53:19;;;;;;;13.15;5.50;;;77.20;2227.20;;;;;;4939539;29;20027;-79
2023/03/28 05:55:45;;;;;;;13.00;5.70;;;77.30;2227.20;;;;;;4940555;29;20040;-79
2023/03/28 05:58:11;;;;;;;15.05;5.88;;;77.40;2227.20;;;;;;4940359;29;20094;-79
2023/03/28 06:00:37;;;;;;;13.93;5.15;;;77.50;2227.20;;;;;;4925009;29;20407;-79
2023/03/28 06:03:03;;;;;;;11.90;5.03;;;77.50;2227.20;;;;;;4921436;29;20079;-79
2023/03/28 06:05:30;;;;;;;18.08;6.80;;;77.60;2227.20;;;;;;4910837;29;20024;-79
2023/03/28 06:07:56;;;;;;;9.27;4.75;;;77.70;2227.20;;;;;;4947999;29;20433;-79
2023/03/28 06:10:24;;;;;;;14.15;5.72;;;102.40;2227.20;;;;;;4940132;29;20032;-80
2023/03/28 06:12:50;;;;;;;11.60;5.10;;;102.50;2227.20;;;;;;4917861;29;20036;-79
2023/03/28 06:15:16;;;;;;;10.30;4.47;;;102.60;2227.20;;;;;;4940052;29;20040;-77
2023/03/28 06:17:43;;;;;;;6.65;4.00;;;102.60;2227.20;;;;;;4953247;29;20198;-76
2023/03/28 06:20:09;;;;;;;11.75;5.43;;;128.40;2252.80;;;;;;4958664;29;20063;-76
2023/03/28 06:22:38;;;;;;;13.23;5.75;;;;;;;;;;4940511;29;20035;-76
2023/03/28 06:25:05;;;;;;;25.23;8.95;;;333.00;1561.60;;;;;;4935533;29;20518;-76
2023/03/28 06:27:32;;;;;;;6.70;4.05;;;384.00;1433.60;;;;;;4943436;29;20494;-76
2023/03/28 06:30:03;;;;;;;6.10;4.00;;;;;;;;;;4958969;29;20114;-79
2023/03/28 06:32:29;;;;;;;17.25;8.00;;;;;;;;;;4958866;29;20036;-76
2023/03/28 06:34:56;;;;;;;8.40;4.93;;;435.40;1280.00;;;;;;4925392;29;20031;-76
2023/03/28 06:37:21;;;;;;;7.70;5.00;;;461.70;1587.20;;;;;;4958178;29;20078;-76
2023/03/28 06:39:49;;;;;;;11.38;6.50;;;461.40;1152.00;;;;;;4958810;29;20039;-76
2023/03/28 06:42:15;;;;;;;8.02;4.78;;;461.10;1152.00;;;;;;4958161;29;20083;-77
2023/03/28 06:44:44;;;;;;;11.77;6.10;;;460.90;1152.00;;;;;;4937531;29;20563;-77
2023/03/28 06:47:10;;;;;;;8.27;4.10;;;461.30;1126.40;;;;;;4922570;29;20364;-77
2023/03/28 06:49:39;;;;;;;8.35;3.80;;;461.60;1100.80;;;;;;4905117;29;20060;-77
2023/03/28 06:52:05;;;;;;;9.63;5.30;;;435.80;1100.80;;;;;;4918782;29;20032;-77
2023/03/28 06:54:30;;;;;;;9.63;4.22;;;461.20;1100.80;;;;;;4908920;29;20043;-77
2023/03/28 06:56:56;;;;;;;9.02;4.65;;;461.00;1100.80;;;;;;4921141;29;20075;-76
2023/03/28 06:59:23;;;;;;;7.18;3.55;;;461.40;1075.20;;;;;;4936916;29;20040;-77
2023/03/28 07:01:49;;;;;;;10.20;5.47;;;436.10;1075.20;;;;;;4941643;29;20028;-77
2023/03/28 07:04:15;;;;;;;9.00;5.18;;;;;;;;;;4942423;29;20039;-78
2023/03/28 07:06:42;;;;;;;5.90;3.63;;;;;;;;;;4942762;29;20043;-78
2023/03/28 07:09:07;;;;;;;8.35;4.93;;;486.40;1049.60;;;;;;4939487;29;20067;-77
2023/03/28 07:11:33;;;;;;;5.97;4.03;;;486.50;1075.20;;;;;;4922586;29;20509;-77
2023/03/28 07:14:00;;;;;;;7.28;3.92;;;486.40;1049.60;;;;;;4939570;29;20043;-77
2023/03/28 07:16:26;;;;;;;4.93;3.03;;;435.80;1049.60;;;;;;4887086;29;20041;-77
2023/03/28 07:18:52;;;;;;;6.50;3.83;;;410.30;1126.40;;;;;;4920942;29;20044;-77
2023/03/28 07:21:18;;;;;;;7.97;4.80;;;;;;;;;;4920938;29;20431;-77
2023/03/28 07:23:44;;;;;;;7.78;3.80;;;;;;;;;;4903594;29;20050;-77
2023/03/28 07:26:11;;;;;;;4.80;3.25;;;;;;;;;;4903967;29;20028;-77
2023/03/28 07:28:37;;;;;;;8.73;4.30;;;;;;;;;;4920381;29;20036;-76
2023/03/28 07:31:04;;;;;;;6.15;3.58;;;;;;;;;;4925427;29;20020;-78
2023/03/28 07:33:34;;;;;;;6.40;3.60;;;307.20;1382.40;;;;;;4927986;29;20048;-77
2023/03/28 07:36:11;;;;;;;19.42;6.68;;;282.10;1382.40;;;;;;4943648;29;20042;-77
2023/03/28 07:38:37;;;;;;;8.75;3.97;;;256.50;1484.80;;;;;;4947173;29;20019;-77
2023/03/28 07:41:04;;;;;;;11.73;5.10;;;256.30;1510.40;;;;;;4947536;29;20048;-77
2023/03/28 07:43:31;;;;;;;11.05;5.18;;;256.30;1561.60;;;;;;4947504;29;20040;-77
2023/03/28 07:46:06;;;;;;;7.38;3.60;;;256.10;1561.60;;;;;;4948535;29;20054;-77
2023/03/28 07:48:34;;;;;;;6.65;3.30;;;256.10;1536.00;;;;;;4926363;29;20052;-77
2023/03/28 07:51:01;;;;;;;7.57;3.58;;;256.10;1536.00;;;;;;4928331;29;20040;-77
2023/03/28 07:53:28;;;;;;;8.40;3.83;;;256.10;1561.60;;;;;;4928766;29;20091;-77
2023/03/28 07:55:53;;;;;;;10.32;4.80;;;231.20;1612.80;;;;;;4941027;29;20039;-77
2023/03/28 07:58:19;;;;;;;4.63;2.58;;;231.00;1638.40;;;;;;4944945;29;20047;-77
2023/03/28 08:00:46;;;;;;;7.13;3.10;;;;;;;;;;4944881;29;20055;-77
2023/03/28 08:03:13;;;;;;;5.65;2.95;;;;;;;;;;4942621;29;20040;-77
2023/03/28 08:05:39;;;;;;;8.25;3.17;;;;;;;;;;4944928;29;20032;-77
2023/03/28 08:08:06;;;;;;;6.20;3.10;;;;;;;;;;4946277;29;20028;-77
2023/03/28 08:10:32;;;;;;;7.15;3.35;;;;;;;;;;4942977;29;20047;-77
2023/03/28 08:12:59;;;;;;;4.70;2.38;;;;;;;;;;4944527;29;20063;-77
2023/03/28 08:15:26;;;;;;;4.05;1.95;;;;;;;;;;4941640;29;20047;-77
2023/03/28 08:17:52;;;;;;;5.95;2.75;;;;;;;;;;4927434;29;20024;-77
2023/03/28 08:20:20;;;;;;;8.50;3.70;;;;;;;;;;4941966;29;20078;-77
2023/03/28 08:22:46;;;;;;;5.43;2.63;;;;;;;;;;4926646;29;20024;-78
2023/03/28 08:25:12;;;;;;;10.23;5.60;;;;;;;;;;4946482;29;20071;-78
2023/03/28 08:27:38;;;;;;;4.28;2.38;;;256.20;1561.60;;;;;;4946563;29;20042;-78
2023/03/28 08:30:06;;;;;;;4.63;2.50;;;256.10;1561.60;;;;;;4947015;29;20043;-77
2023/03/28 08:32:35;;;;;;;6.20;2.95;;;256.40;1536.00;;;;;;4934905;29;20127;-78
2023/03/28 08:35:05;;;;;;;7.40;2.70;;;256.40;1536.00;;;;;;4944975;29;20055;-78
2023/03/28 08:37:30;;;;;;;3.42;1.58;;;256.50;1510.40;;;;;;4925385;29;20031;-78
2023/03/28 08:39:57;;;;;;;5.32;1.98;;;256.40;1484.80;;;;;;4941321;29;20055;-77
2023/03/28 08:43:01;;;;;;;5.15;2.47;;;256.50;1510.40;;;;;;4944366;29;20390;-77
2023/03/28 08:45:43;;;;;;;6.32;2.80;;;256.60;1510.40;;;;;;4924693;29;20039;-78
2023/03/28 08:48:36;;;;;;;5.68;2.97;;;281.60;1484.80;;;;;;4919317;29;20122;-78
2023/03/28 08:51:18;;;;;;;4.60;2.30;;;281.80;1459.20;;;;;;4943183;29;20056;-78
2023/03/28 08:53:50;;;;;;;6.32;2.70;;;281.80;1459.20;;;;;;4925633;29;20422;-78
2023/03/28 08:56:16;;;;;;;4.30;1.80;;;281.90;1484.80;;;;;;4926552;29;20032;-78
2023/03/28 08:59:07;;;;;;;3.58;1.67;;;256.20;1484.80;;;;;;4942584;29;20028;-77
2023/03/28 09:01:33;;;;;;;4.07;1.50;;;231.00;1510.40;;;;;;4925922;29;20134;-78
2023/03/28 09:04:00;;;;;;;3.22;1.58;;;231.00;1536.00;;;;;;4943735;29;20378;-78
2023/03/28 09:06:39;;;;;;;7.95;2.45;;;231.10;1536.00;;;;;;4910968;29;20044;-78
2023/03/28 09:09:44;;;;;;;4.28;1.83;;;256.10;1510.40;;;;;;4943039;29;20036;-78
2023/03/28 09:12:28;;;;;;;4.28;2.42;;;256.40;1510.40;;;;;;4864027;29;20056;-78
2023/03/28 09:15:18;;;;;;;3.42;1.92;;;256.90;1459.20;;;;;;4865323;29;20150;-78
2023/03/28 09:18:02;;;;;;;5.13;2.05;;;256.30;1459.20;;;;;;4864068;29;20033;-77
2023/03/28 09:21:09;;;;;;;3.67;2.20;;;256.50;1484.80;;;;;;4849164;29;20044;-78
2023/03/28 09:23:56;;;;;;;7.05;2.80;;;256.50;1433.60;;;;;;4811939;29;20043;-78
2023/03/28 09:26:40;;;;;;;5.63;2.10;;;281.70;1484.80;;;;;;4809690;29;20137;-78
2023/03/28 09:29:18;;;;;;;3.75;2.20;;;256.70;1433.60;;;;;;4812874;29;20034;-78
2023/03/28 09:31:46;;;;;;;6.43;2.30;;;256.70;1459.20;;;;;;4812114;29;20039;-78
2023/03/28 09:34:27;;;;;;;5.25;2.03;;;256.60;1459.20;;;;;;4816533;29;20097;-77
2023/03/28 09:36:59;;;;;;;5.72;2.10;;;256.20;1459.20;;;;;;4817740;29;20050;-77
2023/03/28 09:42:02;;;;;;;3.92;1.90;;;256.30;1459.20;;;;;;4935659;29;20036;-78
2023/03/28 09:47:57;;;;;;;5.53;2.45;;;256.40;1433.60;;;;;;4946603;23;20080;-78
2023/03/28 09:50:23;;;;;;;4.47;2.50;;;256.30;1459.20;;;;;;4935809;29;20036;-78
2023/03/28 09:52:53;;;;;;;4.97;2.40;;;231.20;1510.40;;;;;;4930550;29;20556;-78
2023/03/28 09:55:22;;;;;;;3.42;1.80;;;230.90;1510.40;;;;;;4935083;29;20028;-78
2023/03/28 09:58:05;;;;;;;5.55;2.40;;;230.60;1510.40;;;;;;4912951;29;20510;-76
2023/03/28 10:00:45;;;;;;;2.73;1.37;;;230.70;1510.40;;;;;;4936252;29;20184;-78
2023/03/28 10:03:33;;;;;;;2.58;1.30;;;230.50;1510.40;;;;;;4928163;29;20096;-77
2023/03/28 10:06:20;;;;;;;4.57;2.40;;;230.50;1510.40;;;;;;4916583;29;20028;-78
2023/03/28 10:08:46;;;;;;;3.85;2.10;;;230.50;1510.40;;;;;;4817858;29;20042;-78
2023/03/28 10:11:15;;;;;;;4.32;1.83;;;205.70;1510.40;;;;;;4834205;29;20563;-78
2023/03/28 10:13:52;;;;;;;4.45;2.10;;;205.70;1612.80;;;;;;4837302;29;20079;-79
2023/03/28 10:16:32;;;;;;;3.63;1.75;;;230.90;1536.00;;;;;;4832727;29;20029;-78
2023/03/28 10:18:58;;;;;;;4.18;1.80;;;256.40;1510.40;;;;;;4821136;29;20074;-78
2023/03/28 10:21:26;;;;;;;7.15;1.88;;;256.60;1459.20;;;;;;4825840;29;20156;-77
2023/03/28 10:24:14;;;;;;;4.53;1.40;;;256.80;1459.20;;;;;;4832680;29;20034;-78
2023/03/28 10:26:56;;;;;;;3.50;1.80;;;256.20;1459.20;;;;;;4835907;29;20039;-79
2023/03/28 10:30:03;;;;;;;3.53;2.00;;;231.10;1484.80;;;;;;4843061;29;20090;-79
2023/03/28 10:32:41;;;;;;;3.53;1.60;;;231.10;1459.20;;;;;;4845422;29;20026;-80
2023/03/28 10:35:15;;;;;;;3.70;1.70;;;230.80;1459.20;;;;;;4819894;29;20037;-79
2023/03/28 10:37:41;;;;;;;4.43;1.50;;;231.20;1484.80;;;;;;4847702;29;20071;-79
2023/03/28 10:40:19;;;;;;;3.63;1.70;;;231.20;1459.20;;;;;;4840920;29;20053;-79
2023/03/28 10:42:49;;;;;;;3.00;1.50;;;256.00;1459.20;;;;;;4847865;29;20031;-79
2023/03/28 10:48:38;;;;;;;3.55;1.23;;;;;;;;;;4940179;29;20091;-79
2023/03/28 10:53:54;;;;;;;3.03;1.40;;;281.70;1433.60;;;;;;1182017;27;20055;-79
2023/03/28 10:56:26;;;;;;;4.47;1.85;;;256.60;1382.40;;;;;;5019605;23;20015;-77
2023/03/28 10:59:10;;;;;;;6.18;3.20;;;256.90;1382.40;;;;;;5001100;23;20047;-78
2023/03/28 11:01:51;;;;;;;4.20;1.88;;;281.80;1433.60;;;;;;5098106;23;20543;-79
2023/03/28 11:04:32;;;;;;;2.40;1.33;;;281.70;1408.00;;;;;;4923645;29;20037;-80
2023/03/28 11:07:17;;;;;;;4.20;1.70;;;256.60;1433.60;;;;;;4908332;29;20080;-78
2023/03/28 11:09:55;;;;;;;4.90;1.65;;;;;;;;;;5021533;23;20060;-78
2023/03/28 11:12:26;;;;;;;3.67;1.70;;;282.50;1408.00;;;;;;4915051;29;20033;-79
2023/03/28 11:15:17;;;;;;;2.80;1.30;;;282.40;1382.40;;;;;;4915258;29;20078;-78
2023/03/28 11:18:05;;;;;;;5.05;2.35;;;307.20;1408.00;;;;;;4918188;29;20029;-78
2023/03/28 11:20:37;;;;;;;4.65;2.00;;;307.50;1382.40;;;;;;4916640;29;20052;-78
2023/03/28 11:23:18;;;;;;;7.53;2.92;;;307.30;1356.80;;;;;;4916377;29;20049;-78
2023/03/28 11:25:53;;;;;;;4.85;1.80;;;307.50;1331.20;;;;;;4910380;29;20132;-77
2023/03/28 11:28:50;;;;;;;3.92;1.75;;;307.60;1356.80;;;;;;4903261;29;20043;-78
2023/03/28 11:31:44;;;;;;;4.97;2.13;;;307.30;1331.20;;;;;;4918158;29;20032;-79
2023/03/28 11:34:12;;;;;;;10.60;3.95;;;307.30;1331.20;;;;;;4921510;29;20063;-78
2023/03/28 11:36:54;;;;;;;33.83;10.73;;;282.20;1331.20;;;;;;4922292;29;20036;-78
2023/03/28 11:40:05;;;;;;;22.60;7.90;;;281.90;1356.80;;;;;;4904903;29;20013;-79
2023/03/28 11:42:40;;;;;;;7.47;2.30;;;256.60;1433.60;;;;;;4905098;29;20076;-79
2023/03/28 11:45:06;;;;;;;8.05;2.20;;;;;;;;;;4892982;29;20033;-79
2023/03/28 11:47:52;;;;;;;14.15;4.63;;;230.50;1638.40;;;;;;4914983;29;20073;-79
2023/03/28 11:50:43;;;;;;;13.20;5.00;;;205.00;2176.00;;;;;;4920849;29;20021;-79
2023/03/28 11:53:30;;;;;;;10.93;4.20;;;180.00;1971.20;;;;;;4918239;29;20040;-79
2023/03/28 11:56:17;;;;;;;30.13;10.48;;;179.80;1996.80;;;;;;4916610;29;20044;-80
2023/03/28 11:58:47;;;;;;;11.85;4.30;;;179.70;1996.80;;;;;;4921705;29;20048;-79
2023/03/28 12:01:21;;;;;;;10.07;3.65;;;179.70;1945.60;;;;;;4917340;29;20031;-79
2023/03/28 12:04:29;;;;;;;13.90;5.10;;;179.80;1894.40;;;;;;4917993;29;20479;-79
2023/03/28 12:07:06;;;;;;;9.52;3.60;;;205.10;1740.80;;;;;;4917240;29;20048;-79
2023/03/28 12:09:57;;;;;;;8.27;3.33;;;205.10;1740.80;;;;;;4915165;29;20060;-79
2023/03/28 12:12:29;;;;;;;8.45;3.90;;;205.10;1715.20;;;;;;4914202;29;20065;-79
2023/03/28 12:15:06;;;;;;;10.90;4.70;;;205.30;1715.20;;;;;;4912026;29;20097;-80
2023/03/28 12:17:38;;;;;;;17.55;7.38;;;;;;;;;;4917829;29;20036;-79
2023/03/28 12:20:12;;;;;;;22.35;9.55;;;231.10;1638.40;;;;;;4920785;29;20025;-80
2023/03/28 12:22:51;;;;;;;12.30;5.50;;;256.50;1587.20;;;;;;4921733;29;20024;-80
2023/03/28 12:25:30;;;;;;;8.43;4.15;;;281.90;1843.20;;;;;;4919760;29;20056;-80
2023/03/28 12:28:14;;;;;;;11.65;4.50;;;281.70;1510.40;;;;;;4922294;29;20044;-80
2023/03/28 12:31:04;;;;;;;15.00;6.57;;;281.80;1459.20;;;;;;4921681;29;20080;-79
2023/03/28 12:34:06;;;;;;;15.55;6.15;;;281.70;1484.80;;;;;;4922295;29;20017;-80
2023/03/28 12:36:52;;;;;;;10.27;4.35;;;;;;;;;;5094813;23;20019;-79
2023/03/28 12:40:13;;;;;;;7.90;4.03;;;282.40;1459.20;;;;;;4909003;29;20056;-80
2023/03/28 12:43:19;;;;;;;3.95;1.90;;;308.00;1459.20;;;;;;4848261;29;20057;-80
2023/03/28 12:46:29;;;;;;;7.82;2.40;;;282.50;1408.00;;;;;;4845295;29;20037;-80
2023/03/28 12:52:24;;;;;;;6.70;2.90;;;205.10;1996.80;;;;;;4667540;27;20047;-79
2023/03/28 12:55:06;;;;;;;6.53;2.35;;;179.60;2227.20;;;;;;4924763;28;20028;-80
2023/03/28 12:58:11;;;;;;;7.50;3.30;;;154.20;2252.80;;;;;;4919643;29;20088;-80
2023/03/28 13:04:20;;;;;;;5.13;3.15;;;153.70;2252.80;;;;;;4912495;29;20039;-79
2023/03/28 13:07:24;;;;;;;3.00;1.65;;;128.70;2252.80;;;;;;4892412;23;20052;-81
2023/03/28 13:10:08;;;;;;;;;;;128.40;2252.80;;;;;;4918199;29;20115;-81
2023/03/28 13:13:01;;;;;;;5.20;2.58;;;128.20;2252.80;;;;;;4920566;29;20416;-80
2023/03/28 13:15:32;;;;;;;6.65;3.35;;;128.80;2252.80;;;;;;4919026;29;20483;-80
2023/03/28 13:18:16;;;;;;;6.05;3.28;;;128.50;2252.80;;;;;;4918234;29;20040;-81
2023/03/28 13:20:50;;;;;;;5.20;3.30;;;128.90;2252.80;;;;;;4918326;29;20108;-81
2023/03/28 13:23:17;;;;;;;6.25;3.00;;;153.70;2252.80;;;;;;4918647;29;20068;-80
2023/03/28 13:25:53;;;;;;;12.10;4.03;;;153.90;2252.80;;;;;;4912952;29;20033;-81
2023/03/28 13:28:28;;;;;;;6.78;3.00;;;154.10;2252.80;;;;;;4923596;29;20036;-81
2023/03/28 13:31:20;;;;;;;8.73;4.20;;;179.30;2252.80;;;;;;4904530;29;20051;-80
2023/03/28 13:34:18;;;;;;;7.88;3.40;;;179.30;2252.80;;;;;;4900464;29;20037;-81
2023/03/28 13:36:53;;;;;;;2.65;1.63;;;179.30;2252.80;;;;;;4915453;29;20032;-82
2023/03/28 13:39:27;;;;;;;5.30;2.63;;;128.90;2252.80;;;;;;4938706;29;20024;-81
2023/03/28 13:41:57;;;;;;;8.93;4.07;;;128.10;2252.80;;;;;;4939343;29;20045;-81
2023/03/28 13:44:49;;;;;;;15.13;7.10;;;102.60;2227.20;;;;;;4925131;29;20092;-81
2023/03/28 13:47:39;;;;;;;17.10;8.45;;;102.40;2227.20;;;;;;4917088;23;20080;-83
2023/03/28 13:50:17;;;;;;;13.05;5.18;;;77.50;2227.20;;;;;;4942590;23;20108;-82
2023/03/28 13:52:42;;;;;;;20.27;8.95;;;77.60;2227.20;;;;;;4933147;29;20032;-82
2023/03/28 13:55:26;;;;;;;16.35;7.70;;;102.40;2227.20;;;;;;4927291;29;20096;-81